createdAt,value
2016-09-05T00:00:00.690Z,20.74
2016-09-05T00:00:55.179Z,20.83
2016-09-05T00:01:55.121Z,20.93
2016-09-05T00:02:54.678Z,20.98
2016-09-05T00:03:55.057Z,20.96
2016-09-05T00:04:54.270Z,20.96
2016-09-05T00:05:55.022Z,20.91
2016-09-05T00:06:54.230Z,20.87
2016-09-05T00:07:54.199Z,20.68
2016-09-05T00:08:54.173Z,20.61
2016-09-05T00:09:54.139Z,20.74
2016-09-05T00:10:54.134Z,20.66
2016-09-05T00:11:54.121Z,20.71
2016-09-05T00:12:54.098Z,20.76
2016-09-05T00:13:59.097Z,20.74
2016-09-05T00:14:54.048Z,20.71
2016-09-05T00:15:54.072Z,20.74
2016-09-05T00:16:53.985Z,20.64
2016-09-05T00:17:54.704Z,20.69
2016-09-05T00:18:53.926Z,20.72
2016-09-05T00:19:54.317Z,20.66
2016-09-05T00:20:53.873Z,20.53
2016-09-05T00:21:53.829Z,20.53
2016-09-05T00:23:08.589Z,20.43
2016-09-05T00:23:54.019Z,20.54
2016-09-05T00:25:08.488Z,20.47
2016-09-05T00:25:53.727Z,20.38
2016-09-05T00:26:53.708Z,20.54
2016-09-05T00:27:54.744Z,20.65
2016-09-05T00:28:53.668Z,20.58
2016-09-05T00:29:53.680Z,20.59
2016-09-05T00:30:53.605Z,20.69
2016-09-05T00:31:53.583Z,20.53
2016-09-05T00:32:53.549Z,20.51
2016-09-05T00:33:54.303Z,20.56
2016-09-05T00:34:54.256Z,20.34
2016-09-05T00:35:54.655Z,20.31
2016-09-05T00:36:54.248Z,20.33
2016-09-05T00:38:08.151Z,20.46
2016-09-05T00:38:53.392Z,20.39
2016-09-05T00:39:54.345Z,20.51
2016-09-05T00:40:53.379Z,20.5
2016-09-05T00:41:53.525Z,20.56
2016-09-05T00:42:53.295Z,20.56
2016-09-05T00:43:53.290Z,20.43
2016-09-05T00:44:54.024Z,20.24
2016-09-05T00:45:53.428Z,20.53
2016-09-05T00:46:53.224Z,20.56
2016-09-05T00:47:53.950Z,20.46
2016-09-05T00:48:54.928Z,20.42
2016-09-05T00:49:53.110Z,20.13
2016-09-05T00:51:08.125Z,20.2
2016-09-05T00:51:53.377Z,20.15
2016-09-05T00:52:53.077Z,20.27
2016-09-05T00:53:53.018Z,20.28
2016-09-05T00:54:52.983Z,20.38
2016-09-05T00:55:52.950Z,20.25
2016-09-05T00:56:53.011Z,20.25
2016-09-05T00:57:53.354Z,20.27
2016-09-05T00:58:53.654Z,20.06
2016-09-05T01:00:07.626Z,20.12
2016-09-05T01:00:52.829Z,20.05
2016-09-05T01:02:52.880Z,19.93
2016-09-05T01:03:53.535Z,19.87
2016-09-05T01:04:52.855Z,19.93
2016-09-05T01:05:52.701Z,20
2016-09-05T01:06:52.781Z,20.13
2016-09-05T01:07:52.689Z,19.97
2016-09-05T01:08:52.629Z,20.15
2016-09-05T01:09:52.587Z,20.18
2016-09-05T01:10:52.648Z,20.09
2016-09-05T01:11:52.553Z,20.18
2016-09-05T01:13:07.265Z,20.25
2016-09-05T01:13:52.574Z,20.3
2016-09-05T01:14:52.573Z,20.16
2016-09-05T01:15:52.445Z,20.2
2016-09-05T01:16:53.207Z,20.3
2016-09-05T01:17:53.154Z,20.54
2016-09-05T01:18:53.135Z,20.41
2016-09-05T01:19:52.382Z,20.56
2016-09-05T01:20:52.359Z,20.39
2016-09-05T01:22:52.300Z,20.27
2016-09-05T01:23:52.231Z,20.28
2016-09-05T01:24:52.308Z,20.46
2016-09-05T01:26:52.162Z,20.42
2016-09-05T01:27:52.169Z,20.41
2016-09-05T01:28:52.138Z,20.33
2016-09-05T01:29:52.221Z,20.31
2016-09-05T01:30:52.058Z,20.23
2016-09-05T01:31:52.056Z,20.12
2016-09-05T01:32:52.060Z,20.12
2016-09-05T01:33:51.979Z,20.23
2016-09-05T01:34:53.541Z,20.13
2016-09-05T01:35:53.439Z,20.21
2016-09-05T01:36:52.261Z,20.28
2016-09-05T01:37:51.892Z,20.3
2016-09-05T01:38:51.857Z,20.39
2016-09-05T01:39:51.835Z,20.43
2016-09-05T01:40:51.832Z,20.34
2016-09-05T01:41:52.531Z,20.38
2016-09-05T01:42:51.752Z,20.28
2016-09-05T01:43:51.738Z,20.33
2016-09-05T01:44:51.774Z,20.27
2016-09-05T01:45:51.669Z,20.34
2016-09-05T01:46:51.677Z,20.38
2016-09-05T01:47:51.623Z,20.34
2016-09-05T01:48:51.618Z,20.46
2016-09-05T01:49:51.589Z,20.42
2016-09-05T01:50:51.739Z,20.58
2016-09-05T01:51:57.865Z,20.31
2016-09-05T01:52:51.499Z,20.38
2016-09-05T01:53:51.479Z,20.53
2016-09-05T01:54:51.456Z,20.56
2016-09-05T01:55:51.423Z,20.51
2016-09-05T01:56:51.390Z,20.59
2016-09-05T01:57:51.382Z,20.56
2016-09-05T01:58:51.397Z,20.61
2016-09-05T01:59:51.350Z,20.54
2016-09-05T02:00:51.288Z,20.58
2016-09-05T02:01:51.362Z,20.69
2016-09-05T02:03:06.245Z,20.69
2016-09-05T02:03:51.987Z,20.59
2016-09-05T02:04:51.193Z,20.53
2016-09-05T02:05:51.343Z,20.31
2016-09-05T02:06:51.141Z,20.31
2016-09-05T02:07:51.128Z,20.21
2016-09-05T02:08:51.097Z,20.16
2016-09-05T02:09:51.122Z,20.27
2016-09-05T02:10:51.082Z,20.33
2016-09-05T02:11:51.004Z,20.34
2016-09-05T02:12:51.126Z,20.33
2016-09-05T02:13:51.009Z,20.18
2016-09-05T02:14:50.970Z,20.3
2016-09-05T02:15:50.949Z,20.12
2016-09-05T02:16:50.931Z,20.16
2016-09-05T02:17:50.853Z,20.13
2016-09-05T02:18:51.643Z,20.1
2016-09-05T02:19:50.823Z,20.21
2016-09-05T02:20:50.774Z,20.18
2016-09-05T02:21:51.003Z,20.12
2016-09-05T02:23:05.434Z,20
2016-09-05T02:23:50.702Z,20.05
2016-09-05T02:24:50.758Z,20.06
2016-09-05T02:25:50.665Z,20.1
2016-09-05T02:26:50.615Z,20.02
2016-09-05T02:27:56.018Z,20.05
2016-09-05T02:28:51.331Z,20.12
2016-09-05T02:29:50.646Z,20.15
2016-09-05T02:30:51.287Z,20.28
2016-09-05T02:31:50.479Z,20.34
2016-09-05T02:32:50.467Z,20.34
2016-09-05T02:33:50.714Z,20.33
2016-09-05T02:34:50.514Z,20.28
2016-09-05T02:35:51.181Z,20.15
2016-09-05T02:37:05.079Z,20.16
2016-09-05T02:37:50.341Z,20.24
2016-09-05T02:39:50.272Z,20.15
2016-09-05T02:40:50.995Z,20.05
2016-09-05T02:41:50.489Z,20.2
2016-09-05T02:42:50.239Z,20.09
2016-09-05T02:43:51.054Z,20.16
2016-09-05T02:44:50.212Z,20.23
2016-09-05T02:46:05.616Z,20.18
2016-09-05T02:46:50.144Z,20.2
2016-09-05T02:47:50.152Z,20.12
2016-09-05T02:48:50.075Z,20.1
2016-09-05T02:49:50.056Z,20.13
2016-09-05T02:50:51.064Z,20.16
2016-09-05T02:51:50.022Z,20.09
2016-09-05T02:52:50.240Z,20.15
2016-09-05T02:53:50.659Z,20.1
2016-09-05T02:54:49.945Z,20.12
2016-09-05T02:55:49.871Z,20.16
2016-09-05T02:56:49.931Z,20.2
2016-09-05T02:57:49.801Z,20.31
2016-09-05T02:58:50.028Z,20.2
2016-09-05T02:59:50.511Z,20.3
2016-09-05T03:00:50.398Z,20.21
2016-09-05T03:01:50.603Z,20.21
2016-09-05T03:02:50.464Z,20.21
2016-09-05T03:03:49.648Z,20.23
2016-09-05T03:04:50.515Z,20.24
2016-09-05T03:05:49.604Z,20.12
2016-09-05T03:06:49.588Z,20.27
2016-09-05T03:07:51.091Z,20.23
2016-09-05T03:08:49.862Z,20.2
2016-09-05T03:09:49.727Z,20.16
2016-09-05T03:10:49.531Z,20.03
2016-09-05T03:12:04.212Z,19.97
2016-09-05T03:12:49.660Z,20.05
2016-09-05T03:13:49.398Z,20.15
2016-09-05T03:14:49.398Z,20.21
2016-09-05T03:15:50.647Z,20.28
2016-09-05T03:16:50.104Z,20.27
2016-09-05T03:17:49.377Z,20.23
2016-09-05T03:18:49.269Z,20.2
2016-09-05T03:19:50.125Z,20.12
2016-09-05T03:21:04.283Z,20.05
2016-09-05T03:21:49.365Z,19.98
2016-09-05T03:22:49.185Z,20.06
2016-09-05T03:23:49.146Z,20.06
2016-09-05T03:24:49.416Z,20
2016-09-05T03:25:49.121Z,20.03
2016-09-05T03:26:49.152Z,20.02
2016-09-05T03:27:49.257Z,20.05
2016-09-05T03:28:49.760Z,19.97
2016-09-05T03:29:49.025Z,20.1
2016-09-05T03:30:49.853Z,20.05
2016-09-05T03:31:49.875Z,20.05
2016-09-05T03:32:50.238Z,20.06
2016-09-05T03:33:49.676Z,20.02
2016-09-05T03:34:50.394Z,20.05
2016-09-05T03:35:48.820Z,20.05
2016-09-05T03:36:48.844Z,20.1
2016-09-05T03:37:49.553Z,20.1
2016-09-05T03:38:49.609Z,20.08
2016-09-05T03:39:48.761Z,20.02
2016-09-05T03:40:48.697Z,20
2016-09-05T03:41:49.571Z,19.94
2016-09-05T03:42:48.708Z,19.95
2016-09-05T03:43:48.628Z,20.21
2016-09-05T03:44:48.697Z,20.15
2016-09-05T03:45:48.575Z,20.18
2016-09-05T03:46:48.569Z,20.1
2016-09-05T03:47:48.587Z,20
2016-09-05T03:48:48.500Z,20
2016-09-05T03:49:50.049Z,20.15
2016-09-05T03:50:48.432Z,20.13
2016-09-05T03:51:49.170Z,20.13
2016-09-05T03:52:48.421Z,20.18
2016-09-05T03:53:48.638Z,20.23
2016-09-05T03:54:48.527Z,20
2016-09-05T03:55:48.379Z,20.03
2016-09-05T03:56:48.286Z,20.12
2016-09-05T03:58:03.758Z,20.06
2016-09-05T03:58:48.231Z,20.1
2016-09-05T03:59:48.205Z,20.2
2016-09-05T04:00:48.222Z,20.23
2016-09-05T04:01:48.176Z,20.15
2016-09-05T04:02:49.041Z,20.2
2016-09-05T04:03:48.091Z,20.18
2016-09-05T04:05:02.870Z,20.16
2016-09-05T04:05:48.038Z,20.23
2016-09-05T04:07:02.799Z,20
2016-09-05T04:07:48.006Z,20.12
2016-09-05T04:09:02.998Z,20.18
2016-09-05T04:09:49.094Z,20.33
2016-09-05T04:10:48.323Z,20.24
2016-09-05T04:11:48.806Z,20.25
2016-09-05T04:12:47.867Z,20.24
2016-09-05T04:13:48.684Z,20.16
2016-09-05T04:14:47.853Z,20.25
2016-09-05T04:15:47.913Z,20.24
2016-09-05T04:16:48.909Z,20.23
2016-09-05T04:17:48.803Z,20.34
2016-09-05T04:18:47.849Z,20.43
2016-09-05T04:19:48.997Z,20.28
2016-09-05T04:20:47.666Z,20.33
2016-09-05T04:21:47.694Z,20.43
2016-09-05T04:22:47.615Z,20.25
2016-09-05T04:23:48.399Z,20.18
2016-09-05T04:24:48.377Z,20.15
2016-09-05T04:25:48.295Z,20.13
2016-09-05T04:26:47.505Z,20.12
2016-09-05T04:27:47.480Z,20.1
2016-09-05T04:28:47.469Z,20.27
2016-09-05T04:29:48.332Z,20.31
2016-09-05T04:30:47.397Z,20.28
2016-09-05T04:31:47.497Z,20.1
2016-09-05T04:32:47.450Z,20.16
2016-09-05T04:33:48.835Z,20.13
2016-09-05T04:35:02.510Z,20.12
2016-09-05T04:35:47.291Z,20
2016-09-05T04:37:47.652Z,20.02
2016-09-05T04:38:47.196Z,19.91
2016-09-05T04:39:47.423Z,20.08
2016-09-05T04:40:47.194Z,20.12
2016-09-05T04:41:47.897Z,20.2
2016-09-05T04:42:47.108Z,20.1
2016-09-05T04:43:47.068Z,20.2
2016-09-05T04:44:47.074Z,20.16
2016-09-05T04:46:02.454Z,20.31
2016-09-05T04:46:47.008Z,20.23
2016-09-05T04:47:47.026Z,20.38
2016-09-05T04:48:47.163Z,20.39
2016-09-05T04:50:48.050Z,20.59
2016-09-05T04:52:02.442Z,20.72
2016-09-05T04:53:46.800Z,20.58
2016-09-05T04:55:46.768Z,20.53
2016-09-05T04:56:46.705Z,20.49
2016-09-05T04:57:46.710Z,20.49
2016-09-05T04:58:46.926Z,20.28
2016-09-05T04:59:46.670Z,20.34
2016-09-05T05:00:46.617Z,20.31
2016-09-05T05:01:46.629Z,20.28
2016-09-05T05:02:47.341Z,20.3
2016-09-05T05:03:47.314Z,20.39
2016-09-05T05:04:46.769Z,20.23
2016-09-05T05:05:46.511Z,20.31
2016-09-05T05:06:47.593Z,20.31
2016-09-05T05:07:46.658Z,20.15
2016-09-05T05:08:46.411Z,20.24
2016-09-05T05:10:01.109Z,20.13
2016-09-05T05:10:46.438Z,20.16
2016-09-05T05:11:46.341Z,20.18
2016-09-05T05:12:46.305Z,20.21
2016-09-05T05:14:48.877Z,20.21
2016-09-05T05:16:46.266Z,20.38
2016-09-05T05:17:46.945Z,20.35
2016-09-05T05:18:46.175Z,20.3
2016-09-05T05:19:46.977Z,20.2
2016-09-05T05:20:46.380Z,20.15
2016-09-05T05:21:46.941Z,20.18
2016-09-05T05:22:47.109Z,20.2
2016-09-05T05:23:46.043Z,20.27
2016-09-05T05:24:46.003Z,20.15
2016-09-05T05:25:45.973Z,20.13
2016-09-05T05:26:45.959Z,20.05
2016-09-05T05:27:45.923Z,20.15
2016-09-05T05:28:45.914Z,20.12
2016-09-05T05:29:47.389Z,20.16
2016-09-05T05:30:45.834Z,20.15
2016-09-05T05:31:45.851Z,20.13
2016-09-05T05:32:45.794Z,20.1
2016-09-05T05:33:46.517Z,20.02
2016-09-05T05:35:01.233Z,20
2016-09-05T05:36:46.452Z,19.94
2016-09-05T05:38:00.388Z,19.91
2016-09-05T05:38:46.409Z,19.97
2016-09-05T05:39:45.610Z,19.84
2016-09-05T05:40:45.587Z,19.91
2016-09-05T05:41:46.351Z,19.93
2016-09-05T05:42:45.553Z,19.9
2016-09-05T05:43:45.510Z,19.93
2016-09-05T05:45:00.607Z,19.86
2016-09-05T05:45:45.478Z,19.76
2016-09-05T05:46:45.466Z,19.79
2016-09-05T05:47:45.494Z,19.91
2016-09-05T05:48:46.125Z,19.93
2016-09-05T05:49:46.222Z,19.86
2016-09-05T05:50:45.365Z,19.9
2016-09-05T05:51:45.294Z,19.97
2016-09-05T05:52:46.104Z,20.03
2016-09-05T05:54:45.685Z,20.28
2016-09-05T05:55:45.230Z,20.33
2016-09-05T05:56:46.041Z,20.31
2016-09-05T05:57:45.484Z,20.28
2016-09-05T05:58:45.127Z,20.16
2016-09-05T05:59:46.248Z,20.08
2016-09-05T06:00:45.124Z,20.13
2016-09-05T06:01:45.059Z,20.12
2016-09-05T06:02:59.718Z,20.13
2016-09-05T06:03:44.988Z,20.18
2016-09-05T06:04:45.783Z,20.12
2016-09-05T06:05:44.938Z,20.06
2016-09-05T06:06:44.904Z,20.15
2016-09-05T06:07:44.892Z,20.16
2016-09-05T06:08:44.900Z,20.13
2016-09-05T06:09:44.922Z,20.2
2016-09-05T06:10:44.803Z,20.05
2016-09-05T06:11:44.766Z,20.21
2016-09-05T06:12:44.748Z,20.06
2016-09-05T06:13:44.734Z,20.03
2016-09-05T06:14:44.701Z,20.03
2016-09-05T06:16:00.475Z,20.08
2016-09-05T06:16:44.721Z,20
2016-09-05T06:17:45.464Z,20.06
2016-09-05T06:18:44.720Z,20
2016-09-05T06:19:44.597Z,20.05
2016-09-05T06:20:44.552Z,19.98
2016-09-05T06:21:45.337Z,20.18
2016-09-05T06:23:44.461Z,20.15
2016-09-05T06:24:59.200Z,20.2
2016-09-05T06:25:45.507Z,20.1
2016-09-05T06:26:44.397Z,20.15
2016-09-05T06:27:45.135Z,20.16
2016-09-05T06:28:45.104Z,20.15
2016-09-05T06:29:44.670Z,20.2
2016-09-05T06:30:44.306Z,20.21
2016-09-05T06:31:44.271Z,20.18
2016-09-05T06:32:44.245Z,20.1
2016-09-05T06:33:52.039Z,20.03
2016-09-05T06:34:44.196Z,20.12
2016-09-05T06:35:44.172Z,20.13
2016-09-05T06:36:44.141Z,20.15
2016-09-05T06:37:44.102Z,20.2
2016-09-05T06:38:44.084Z,20.18
2016-09-05T06:39:45.153Z,20.12
2016-09-05T06:40:44.175Z,20.25
2016-09-05T06:41:44.006Z,20.25
2016-09-05T06:42:44.755Z,20.15
2016-09-05T06:43:43.954Z,20.13
2016-09-05T06:44:43.998Z,20.06
2016-09-05T06:45:43.901Z,20.05
2016-09-05T06:46:44.624Z,20.2
2016-09-05T06:47:43.881Z,20.28
2016-09-05T06:48:44.581Z,20.43
2016-09-05T06:49:44.031Z,20.43
2016-09-05T06:50:45.465Z,20.46
2016-09-05T06:51:43.807Z,20.34
2016-09-05T06:52:43.700Z,20.42
2016-09-05T06:53:43.697Z,20.53
2016-09-05T06:55:44.088Z,20.25
2016-09-05T06:56:43.642Z,20.27
2016-09-05T06:57:43.579Z,20.27
2016-09-05T06:58:43.549Z,20.41
2016-09-05T06:59:44.405Z,20.3
2016-09-05T07:00:43.504Z,20.27
2016-09-05T07:01:44.272Z,20.42
2016-09-05T07:02:43.455Z,20.39
2016-09-05T07:03:58.210Z,20.41
2016-09-05T07:04:45.203Z,20.33
2016-09-05T07:06:43.494Z,20.31
2016-09-05T07:07:58.331Z,20.53
2016-09-05T07:08:44.110Z,20.41
2016-09-05T07:09:44.050Z,20.5
2016-09-05T07:10:43.263Z,20.49
2016-09-05T07:11:43.221Z,20.65
2016-09-05T07:12:43.223Z,20.54
2016-09-05T07:13:43.167Z,20.51
2016-09-05T07:14:43.590Z,20.47
2016-09-05T07:15:43.918Z,20.47
2016-09-05T07:16:43.324Z,20.54
2016-09-05T07:17:43.196Z,20.56
2016-09-05T07:18:43.848Z,20.42
2016-09-05T07:19:43.040Z,20.54
2016-09-05T07:20:42.995Z,20.77
2016-09-05T07:21:42.975Z,20.53
2016-09-05T07:22:42.971Z,20.53
2016-09-05T07:23:42.901Z,20.68
2016-09-05T07:24:42.973Z,20.74
2016-09-05T07:25:42.869Z,20.69
2016-09-05T07:26:42.841Z,20.96
2016-09-05T07:27:42.808Z,20.86
2016-09-05T07:28:57.509Z,21.05
2016-09-05T07:29:42.898Z,21.11
2016-09-05T07:30:42.809Z,21.09
2016-09-05T07:31:42.802Z,21.01
2016-09-05T07:32:43.506Z,21.02
2016-09-05T07:33:44.190Z,21.17
2016-09-05T07:34:42.673Z,21.2
2016-09-05T07:35:42.590Z,21.21
2016-09-05T07:36:43.348Z,21.14
2016-09-05T07:37:42.621Z,21.2
2016-09-05T07:38:42.527Z,21.21
2016-09-05T07:39:42.522Z,21.38
2016-09-05T07:40:43.324Z,21.57
2016-09-05T07:41:42.499Z,21.53
2016-09-05T07:42:43.214Z,21.59
2016-09-05T07:43:42.414Z,21.57
2016-09-05T07:44:42.412Z,21.23
2016-09-05T07:45:42.351Z,21.39
2016-09-05T07:46:42.337Z,21.26
2016-09-05T07:47:42.292Z,21.27
2016-09-05T07:48:42.269Z,21.27
2016-09-05T07:50:42.240Z,21.34
2016-09-05T07:51:56.937Z,21.42
2016-09-05T07:52:42.182Z,21.42
2016-09-05T07:53:42.152Z,21.42
2016-09-05T07:54:42.120Z,21.21
2016-09-05T07:55:42.116Z,21.24
2016-09-05T07:56:42.217Z,21.24
2016-09-05T07:57:42.903Z,21.39
2016-09-05T07:58:42.040Z,21.41
2016-09-05T07:59:41.992Z,21.38
2016-09-05T08:00:56.701Z,21.39
2016-09-05T08:01:41.945Z,21.45
2016-09-05T08:02:41.973Z,21.5
2016-09-05T08:03:42.663Z,21.44
2016-09-05T08:04:41.874Z,21.51
2016-09-05T08:05:41.848Z,21.44
2016-09-05T08:06:41.819Z,21.41
2016-09-05T08:07:57.589Z,21.27
2016-09-05T08:09:56.458Z,21.29
2016-09-05T08:10:41.753Z,21.41
2016-09-05T08:11:41.753Z,21.35
2016-09-05T08:12:43.223Z,21.24
2016-09-05T08:13:41.653Z,21.27
2016-09-05T08:14:41.631Z,21.44
2016-09-05T08:15:41.671Z,21.45
2016-09-05T08:16:41.656Z,21.53
2016-09-05T08:17:42.422Z,21.54
2016-09-05T08:19:41.534Z,21.57
2016-09-05T08:20:42.327Z,21.63
2016-09-05T08:21:41.472Z,21.79
2016-09-05T08:22:56.137Z,21.69
2016-09-05T08:23:42.190Z,21.91
2016-09-05T08:24:42.162Z,21.66
2016-09-05T08:25:42.086Z,21.81
2016-09-05T08:26:41.429Z,21.66
2016-09-05T08:27:41.293Z,21.67
2016-09-05T08:28:41.269Z,21.56
2016-09-05T08:29:41.978Z,21.74
2016-09-05T08:30:41.195Z,21.72
2016-09-05T08:31:41.294Z,21.75
2016-09-05T08:32:41.178Z,21.71
2016-09-05T08:33:55.862Z,21.64
2016-09-05T08:34:41.902Z,21.67
2016-09-05T08:35:41.947Z,21.66
2016-09-05T08:36:41.837Z,21.6
2016-09-05T08:37:41.023Z,21.71
2016-09-05T08:38:41.011Z,21.67
2016-09-05T08:39:40.986Z,21.41
2016-09-05T08:40:40.973Z,21.54
2016-09-05T08:41:40.939Z,21.56
2016-09-05T08:42:41.728Z,21.53
2016-09-05T08:43:41.675Z,21.38
2016-09-05T08:45:40.916Z,21.54
2016-09-05T08:46:55.512Z,21.66
2016-09-05T08:47:40.812Z,21.76
2016-09-05T08:48:41.547Z,21.91
2016-09-05T08:49:40.847Z,21.85
2016-09-05T08:50:40.771Z,21.83
2016-09-05T08:51:41.440Z,21.82
2016-09-05T08:52:40.647Z,21.82
2016-09-05T08:53:41.574Z,21.97
2016-09-05T08:54:40.683Z,21.83
2016-09-05T08:55:40.872Z,21.78
2016-09-05T08:56:40.543Z,21.79
2016-09-05T08:57:55.981Z,21.85
2016-09-05T08:58:41.410Z,21.91
2016-09-05T08:59:40.458Z,21.88
2016-09-05T09:00:40.454Z,22.01
2016-09-05T09:01:41.259Z,22.07
2016-09-05T09:02:41.483Z,22.02
2016-09-05T09:03:40.366Z,22.02
2016-09-05T09:04:40.467Z,22.2
2016-09-05T09:05:40.354Z,22.23
2016-09-05T09:06:40.489Z,22.28
2016-09-05T09:08:40.252Z,22.22
2016-09-05T09:09:40.251Z,22.19
2016-09-05T09:10:54.925Z,22.31
2016-09-05T09:11:40.186Z,22.37
2016-09-05T09:12:40.908Z,22.19
2016-09-05T09:13:40.940Z,22.31
2016-09-05T09:14:40.102Z,22.19
2016-09-05T09:16:40.832Z,22.13
2016-09-05T09:17:40.057Z,22.17
2016-09-05T09:18:40.758Z,22.17
2016-09-05T09:19:40.147Z,22.16
2016-09-05T09:20:39.983Z,22.22
2016-09-05T09:21:39.953Z,22.35
2016-09-05T09:22:39.917Z,22.37
2016-09-05T09:23:39.869Z,22.49
2016-09-05T09:24:39.862Z,22.69
2016-09-05T09:25:39.885Z,22.59
2016-09-05T09:26:40.700Z,22.62
2016-09-05T09:27:40.644Z,22.74
2016-09-05T09:28:39.752Z,22.69
2016-09-05T09:29:40.492Z,22.69
2016-09-05T09:30:39.695Z,22.75
2016-09-05T09:31:39.895Z,22.59
2016-09-05T09:32:39.653Z,22.78
2016-09-05T09:33:39.631Z,22.8
2016-09-05T09:34:39.636Z,22.99
2016-09-05T09:35:39.722Z,23.15
2016-09-05T09:36:40.396Z,23.14
2016-09-05T09:37:39.506Z,23.04
2016-09-05T09:38:39.503Z,22.99
2016-09-05T09:39:40.279Z,22.87
2016-09-05T09:40:54.179Z,23.09
2016-09-05T09:41:40.235Z,22.97
2016-09-05T09:42:39.415Z,22.9
2016-09-05T09:43:39.384Z,22.89
2016-09-05T09:44:54.117Z,22.86
2016-09-05T09:46:45.591Z,23.12
2016-09-05T09:47:41.025Z,22.93
2016-09-05T09:48:39.258Z,23.05
2016-09-05T09:49:39.297Z,23.01
2016-09-05T09:50:39.264Z,22.89
2016-09-05T09:51:39.408Z,22.94
2016-09-05T09:52:39.317Z,23.08
2016-09-05T09:53:39.273Z,23.02
2016-09-05T09:54:39.866Z,22.96
2016-09-05T09:56:40.694Z,23.08
2016-09-05T09:57:39.071Z,23.31
2016-09-05T09:58:39.817Z,23.27
2016-09-05T09:59:39.084Z,23.45
2016-09-05T10:00:38.956Z,23.58
2016-09-05T10:01:40.455Z,23.27
2016-09-05T10:02:38.928Z,23.26
2016-09-05T10:03:38.877Z,23.19
2016-09-05T10:04:38.871Z,23.27
2016-09-05T10:05:39.607Z,23.26
2016-09-05T10:06:38.824Z,23.26
2016-09-05T10:07:38.790Z,23.11
2016-09-05T10:08:39.592Z,23.2
2016-09-05T10:09:38.728Z,22.93
2016-09-05T10:10:38.730Z,23.08
2016-09-05T10:11:54.180Z,23.12
2016-09-05T10:12:38.664Z,23.04
2016-09-05T10:13:54.513Z,23.12
2016-09-05T10:14:39.467Z,23.02
2016-09-05T10:15:38.579Z,23.09
2016-09-05T10:16:39.711Z,23.02
2016-09-05T10:17:38.592Z,23.07
2016-09-05T10:18:38.535Z,23.14
2016-09-05T10:19:39.250Z,23.15
2016-09-05T10:20:38.532Z,23.11
2016-09-05T10:21:39.238Z,23.14
2016-09-05T10:23:38.486Z,23.27
2016-09-05T10:25:38.666Z,23.23
2016-09-05T10:26:38.350Z,23.17
2016-09-05T10:27:39.064Z,23.14
2016-09-05T10:28:38.274Z,23.24
2016-09-05T10:29:38.258Z,23.24
2016-09-05T10:30:38.250Z,23.29
2016-09-05T10:31:38.966Z,23.26
2016-09-05T10:32:38.940Z,23.35
2016-09-05T10:33:39.418Z,23.55
2016-09-05T10:34:38.117Z,23.64
2016-09-05T10:35:38.178Z,23.65
2016-09-05T10:36:38.101Z,23.83
2016-09-05T10:37:38.091Z,23.65
2016-09-05T10:38:38.831Z,23.75
2016-09-05T10:39:38.007Z,23.67
2016-09-05T10:40:37.962Z,23.57
2016-09-05T10:41:37.992Z,23.53
2016-09-05T10:42:38.697Z,23.58
2016-09-05T10:43:38.771Z,23.64
2016-09-05T10:44:38.287Z,23.64
2016-09-05T10:45:38.067Z,23.55
2016-09-05T10:46:38.153Z,23.55
2016-09-05T10:47:37.791Z,23.61
2016-09-05T10:48:37.856Z,23.52
2016-09-05T10:49:37.827Z,23.6
2016-09-05T10:50:52.473Z,23.71
2016-09-05T10:51:37.726Z,23.61
2016-09-05T10:52:37.701Z,23.77
2016-09-05T10:53:37.662Z,23.65
2016-09-05T10:54:37.632Z,23.55
2016-09-05T10:55:37.617Z,23.67
2016-09-05T10:56:37.623Z,23.71
2016-09-05T10:57:37.604Z,23.79
2016-09-05T10:58:37.557Z,24.05
2016-09-05T11:01:54.659Z,24.16
2016-09-05T11:02:38.287Z,24.08
2016-09-05T11:03:53.382Z,24.12
2016-09-05T11:04:37.403Z,24.07
2016-09-05T11:05:37.352Z,24.1
2016-09-05T11:06:37.366Z,24.19
2016-09-05T11:07:37.439Z,24.13
2016-09-05T11:08:37.320Z,24.1
2016-09-05T11:09:37.462Z,24.34
2016-09-05T11:10:37.233Z,24.37
2016-09-05T11:11:38.781Z,24.41
2016-09-05T11:12:37.376Z,24.31
2016-09-05T11:13:37.197Z,24.34
2016-09-05T11:14:52.541Z,24.19
2016-09-05T11:16:37.345Z,24.17
2016-09-05T11:17:39.352Z,24.2
2016-09-05T11:18:37.478Z,24.16
2016-09-05T11:21:06.433Z,24.08
2016-09-05T11:22:51.776Z,24.29
2016-09-05T11:23:52.885Z,24.14
2016-09-05T11:24:37.006Z,24.05
2016-09-05T11:25:36.946Z,24.05
2016-09-05T11:26:37.264Z,24.17
2016-09-05T11:27:36.823Z,24.1
2016-09-05T11:28:36.790Z,24.2
2016-09-05T11:29:37.709Z,24.26
2016-09-05T11:30:51.582Z,24.42
2016-09-05T11:31:39.845Z,24.5
2016-09-05T11:32:51.420Z,24.69
2016-09-05T11:33:36.669Z,24.56
2016-09-05T11:34:37.443Z,24.5
2016-09-05T11:35:36.648Z,24.67
2016-09-05T11:36:36.617Z,24.73
2016-09-05T11:37:38.117Z,24.82
2016-09-05T11:38:37.332Z,24.79
2016-09-05T11:39:38.099Z,24.82
2016-09-05T11:40:36.607Z,24.73
2016-09-05T11:41:37.316Z,24.54
2016-09-05T11:42:36.494Z,24.67
2016-09-05T11:43:36.491Z,24.71
2016-09-05T11:44:36.437Z,24.57
2016-09-05T11:45:37.299Z,24.42
2016-09-05T11:46:37.183Z,24.61
2016-09-05T11:47:36.335Z,24.5
2016-09-05T11:51:02.197Z,24.85
2016-09-05T11:53:19.362Z,25.13
2016-09-05T11:53:48.578Z,25.12
2016-09-05T11:54:46.933Z,25.06
2016-09-05T11:55:47.707Z,25.06
2016-09-05T11:56:46.523Z,25.1
2016-09-05T11:58:50.810Z,25.1
2016-09-05T12:00:47.511Z,24.91
2016-09-05T12:01:48.629Z,25
2016-09-05T12:46:15.633Z,24.6
2016-09-05T12:46:46.096Z,24.59
2016-09-05T12:47:46.089Z,24.44
2016-09-05T12:48:46.539Z,24.5
2016-09-05T12:50:00.821Z,24.56
2016-09-05T12:50:46.050Z,24.67
2016-09-05T12:52:00.997Z,24.73
2016-09-05T12:52:46.002Z,24.75
2016-09-05T12:53:45.974Z,24.79
2016-09-05T12:54:45.904Z,24.73
2016-09-05T12:55:45.930Z,24.79
2016-09-05T12:56:45.904Z,24.69
2016-09-05T12:57:45.845Z,24.85
2016-09-05T12:58:45.830Z,25.07
2016-09-05T12:59:45.826Z,25.07
2016-09-05T13:00:46.651Z,25.16
2016-09-05T13:01:45.751Z,25.17
2016-09-05T13:02:46.107Z,25.35
2016-09-05T13:03:45.732Z,25.09
2016-09-05T13:04:46.027Z,24.94
2016-09-05T13:05:45.706Z,25.15
2016-09-05T13:06:45.704Z,25.15
2016-09-05T13:07:45.971Z,25.24
2016-09-05T13:08:45.604Z,25.39
2016-09-05T13:09:45.592Z,25.44
2016-09-05T13:10:45.547Z,25.46
2016-09-05T13:11:45.516Z,25.35
2016-09-05T13:12:46.004Z,25.39
2016-09-05T13:13:45.847Z,25.47
2016-09-05T13:14:45.474Z,25.34
2016-09-05T13:15:45.860Z,25.47
2016-09-05T13:16:45.881Z,25.47
2016-09-05T13:17:45.421Z,25.44
2016-09-05T13:18:45.380Z,25.49
2016-09-05T13:19:45.360Z,25.67
2016-09-05T13:20:45.668Z,25.61
2016-09-05T13:21:45.389Z,25.8
2016-09-05T13:22:45.620Z,25.75
2016-09-05T13:23:45.706Z,25.87
2016-09-05T13:24:46.103Z,25.94
2016-09-05T13:25:45.201Z,25.99
2016-09-05T13:26:45.549Z,25.77
2016-09-05T13:27:45.208Z,25.54
2016-09-05T13:28:45.167Z,25.68
2016-09-05T13:29:45.340Z,25.57
2016-09-05T13:30:45.178Z,25.62
2016-09-05T13:31:45.538Z,25.59
2016-09-05T13:32:45.084Z,25.61
2016-09-05T13:33:45.385Z,25.71
2016-09-05T13:34:45.403Z,25.64
2016-09-05T13:35:45.003Z,25.72
2016-09-05T13:36:44.931Z,25.72
2016-09-05T13:39:44.973Z,25.5
2016-09-05T13:40:44.844Z,25.64
2016-09-05T13:41:44.822Z,25.59
2016-09-05T13:42:44.838Z,25.57
2016-09-05T13:43:44.794Z,25.84
2016-09-05T13:44:44.743Z,25.75
2016-09-05T13:45:45.429Z,25.84
2016-09-05T13:46:44.759Z,25.94
2016-09-05T13:47:44.777Z,25.97
2016-09-05T13:48:44.677Z,26.08
2016-09-05T13:49:44.672Z,26.22
2016-09-05T13:50:45.135Z,26.25
2016-09-05T13:51:59.323Z,26.55
2016-09-05T13:52:44.691Z,26.74
2016-09-05T13:53:45.011Z,26.61
2016-09-05T13:54:44.683Z,26.92
2016-09-05T13:55:44.484Z,27.51
2016-09-05T13:56:44.552Z,27.41
2016-09-05T13:57:44.427Z,27.05
2016-09-05T13:58:44.438Z,27.05
2016-09-05T13:59:44.412Z,27.58
2016-09-05T14:00:45.631Z,27.69
2016-09-05T14:01:44.777Z,27.57
2016-09-05T14:02:44.586Z,27.29
2016-09-05T14:03:44.311Z,27.09
2016-09-05T14:04:44.290Z,27.04
2016-09-05T14:05:44.484Z,26.96
2016-09-05T14:06:44.277Z,26.74
2016-09-05T14:07:44.209Z,26.73
2016-09-05T14:08:44.230Z,26.69
2016-09-05T14:09:44.427Z,26.59
2016-09-05T14:10:44.200Z,26.62
2016-09-05T14:11:44.110Z,26.57
2016-09-05T14:12:44.123Z,26.32
2016-09-05T14:13:44.138Z,26.22
2016-09-05T14:14:59.083Z,25.99
2016-09-05T14:15:44.467Z,25.99